ěÝzenÝ letovÚho provozu ╚eskÚ republiky
Letiste: LKBC Aktualizace: 07.04.2020 02:25:25  UTC
 METAR LKBC 07.04. 02:30 ...
METAR LKBC 070230Z AUTO 09004KT CAVOK 05/M04 Q1028=